sensor_id;sensor_type;location;lat;lon;timestamp;P1;durP1;ratioP1;P2;durP2;ratioP2
74177;SDS011;62540;48.456;-4.456;2023-07-31T00:00:04;8.00;;;6.50;;
74177;SDS011;62540;48.456;-4.456;2023-07-31T00:02:30;8.25;;;4.50;;
74177;SDS011;62540;48.456;-4.456;2023-07-31T00:04:55;5.75;;;5.00;;
74177;SDS011;62540;48.456;-4.456;2023-07-31T00:07:20;6.75;;;4.00;;
74177;SDS011;62540;48.456;-4.456;2023-07-31T00:09:46;6.50;;;4.25;;
74177;SDS011;62540;48.456;-4.456;2023-07-31T00:12:11;7.00;;;6.00;;
74177;SDS011;62540;48.456;-4.456;2023-07-31T00:14:37;5.50;;;5.00;;
74177;SDS011;62540;48.456;-4.456;2023-07-31T00:17:02;6.00;;;5.00;;
74177;SDS011;62540;48.456;-4.456;2023-07-31T00:19:27;3.75;;;3.00;;
74177;SDS011;62540;48.456;-4.456;2023-07-31T00:21:53;5.00;;;4.00;;
74177;SDS011;62540;48.456;-4.456;2023-07-31T00:24:18;4.50;;;4.00;;
74177;SDS011;62540;48.456;-4.456;2023-07-31T00:26:43;10.50;;;4.75;;
74177;SDS011;62540;48.456;-4.456;2023-07-31T00:29:09;5.50;;;5.50;;
74177;SDS011;62540;48.456;-4.456;2023-07-31T00:31:34;4.50;;;3.25;;
74177;SDS011;62540;48.456;-4.456;2023-07-31T00:34:00;4.25;;;3.00;;
74177;SDS011;62540;48.456;-4.456;2023-07-31T00:36:25;6.75;;;4.00;;
74177;SDS011;62540;48.456;-4.456;2023-07-31T00:38:50;6.00;;;3.25;;
74177;SDS011;62540;48.456;-4.456;2023-07-31T00:41:16;7.75;;;7.00;;
74177;SDS011;62540;48.456;-4.456;2023-07-31T00:43:41;2.75;;;2.75;;
74177;SDS011;62540;48.456;-4.456;2023-07-31T00:46:07;7.75;;;6.00;;
74177;SDS011;62540;48.456;-4.456;2023-07-31T00:48:32;4.75;;;4.25;;
74177;SDS011;62540;48.456;-4.456;2023-07-31T00:50:58;8.00;;;5.00;;
74177;SDS011;62540;48.456;-4.456;2023-07-31T00:53:25;5.50;;;4.00;;
74177;SDS011;62540;48.456;-4.456;2023-07-31T00:55:52;4.75;;;1.00;;
74177;SDS011;62540;48.456;-4.456;2023-07-31T00:58:18;6.00;;;5.00;;
74177;SDS011;62540;48.456;-4.456;2023-07-31T01:00:43;3.75;;;3.00;;
74177;SDS011;62540;48.456;-4.456;2023-07-31T01:03:09;6.00;;;4.00;;
74177;SDS011;62540;48.456;-4.456;2023-07-31T01:05:49;8.00;;;5.00;;
74177;SDS011;62540;48.456;-4.456;2023-07-31T01:11:15;4.50;;;3.75;;
74177;SDS011;62540;48.456;-4.456;2023-07-31T01:13:44;4.25;;;2.50;;
74177;SDS011;62540;48.456;-4.456;2023-07-31T01:16:11;7.25;;;4.00;;
74177;SDS011;62540;48.456;-4.456;2023-07-31T01:18:36;5.00;;;4.00;;
74177;SDS011;62540;48.456;-4.456;2023-07-31T01:24:07;8.25;;;4.00;;
74177;SDS011;62540;48.456;-4.456;2023-07-31T01:26:49;5.50;;;3.75;;
74177;SDS011;62540;48.456;-4.456;2023-07-31T01:29:38;6.75;;;5.00;;
74177;SDS011;62540;48.456;-4.456;2023-07-31T01:32:14;5.50;;;4.50;;
74177;SDS011;62540;48.456;-4.456;2023-07-31T01:34:42;4.75;;;4.00;;
74177;SDS011;62540;48.456;-4.456;2023-07-31T01:37:08;7.00;;;7.00;;
74177;SDS011;62540;48.456;-4.456;2023-07-31T01:39:33;5.25;;;4.25;;
74177;SDS011;62540;48.456;-4.456;2023-07-31T01:41:58;5.50;;;5.00;;
74177;SDS011;62540;48.456;-4.456;2023-07-31T01:44:24;5.75;;;5.50;;
74177;SDS011;62540;48.456;-4.456;2023-07-31T01:46:49;6.75;;;4.75;;
74177;SDS011;62540;48.456;-4.456;2023-07-31T01:49:15;4.50;;;4.00;;
74177;SDS011;62540;48.456;-4.456;2023-07-31T01:51:40;7.25;;;5.00;;
74177;SDS011;62540;48.456;-4.456;2023-07-31T01:54:05;4.25;;;3.25;;
74177;SDS011;62540;48.456;-4.456;2023-07-31T01:56:31;6.00;;;5.00;;
74177;SDS011;62540;48.456;-4.456;2023-07-31T01:58:56;4.25;;;4.25;;
74177;SDS011;62540;48.456;-4.456;2023-07-31T02:01:22;6.25;;;4.50;;
74177;SDS011;62540;48.456;-4.456;2023-07-31T02:03:47;5.75;;;5.25;;
74177;SDS011;62540;48.456;-4.456;2023-07-31T02:06:12;4.50;;;4.00;;
74177;SDS011;62540;48.456;-4.456;2023-07-31T02:08:38;4.25;;;4.25;;
74177;SDS011;62540;48.456;-4.456;2023-07-31T02:11:03;4.25;;;4.00;;
74177;SDS011;62540;48.456;-4.456;2023-07-31T02:13:28;4.75;;;4.00;;
74177;SDS011;62540;48.456;-4.456;2023-07-31T02:15:54;4.00;;;2.25;;
74177;SDS011;62540;48.456;-4.456;2023-07-31T02:18:20;4.25;;;4.00;;
74177;SDS011;62540;48.456;-4.456;2023-07-31T02:20:50;6.25;;;3.50;;
74177;SDS011;62540;48.456;-4.456;2023-07-31T02:23:17;5.50;;;3.00;;
74177;SDS011;62540;48.456;-4.456;2023-07-31T02:25:43;2.75;;;2.75;;
74177;SDS011;62540;48.456;-4.456;2023-07-31T02:28:09;3.25;;;3.00;;
74177;SDS011;62540;48.456;-4.456;2023-07-31T02:30:34;4.25;;;3.75;;
74177;SDS011;62540;48.456;-4.456;2023-07-31T02:33:00;4.75;;;3.00;;
74177;SDS011;62540;48.456;-4.456;2023-07-31T02:35:25;3.75;;;3.00;;
74177;SDS011;62540;48.456;-4.456;2023-07-31T02:37:51;4.50;;;3.00;;
74177;SDS011;62540;48.456;-4.456;2023-07-31T02:40:16;5.50;;;3.50;;
74177;SDS011;62540;48.456;-4.456;2023-07-31T02:42:41;3.50;;;2.75;;
74177;SDS011;62540;48.456;-4.456;2023-07-31T02:45:07;1.50;;;1.25;;
74177;SDS011;62540;48.456;-4.456;2023-07-31T02:47:33;3.00;;;3.00;;
74177;SDS011;62540;48.456;-4.456;2023-07-31T02:49:58;2.75;;;1.75;;
74177;SDS011;62540;48.456;-4.456;2023-07-31T02:52:24;3.00;;;2.00;;
74177;SDS011;62540;48.456;-4.456;2023-07-31T02:54:50;2.25;;;2.25;;
74177;SDS011;62540;48.456;-4.456;2023-07-31T02:57:15;3.75;;;3.00;;
74177;SDS011;62540;48.456;-4.456;2023-07-31T02:59:41;3.00;;;2.00;;
74177;SDS011;62540;48.456;-4.456;2023-07-31T03:02:06;3.50;;;2.50;;
74177;SDS011;62540;48.456;-4.456;2023-07-31T03:04:32;3.25;;;3.25;;
74177;SDS011;62540;48.456;-4.456;2023-07-31T03:06:57;2.50;;;2.00;;
74177;SDS011;62540;48.456;-4.456;2023-07-31T03:09:23;4.00;;;3.25;;
74177;SDS011;62540;48.456;-4.456;2023-07-31T03:11:48;3.75;;;3.75;;
74177;SDS011;62540;48.456;-4.456;2023-07-31T03:14:13;5.00;;;4.00;;
74177;SDS011;62540;48.456;-4.456;2023-07-31T03:16:39;5.25;;;4.00;;
74177;SDS011;62540;48.456;-4.456;2023-07-31T03:19:04;5.00;;;4.00;;
74177;SDS011;62540;48.456;-4.456;2023-07-31T03:21:29;3.00;;;2.50;;
74177;SDS011;62540;48.456;-4.456;2023-07-31T03:23:55;3.00;;;3.00;;
74177;SDS011;62540;48.456;-4.456;2023-07-31T03:26:20;4.00;;;3.00;;
74177;SDS011;62540;48.456;-4.456;2023-07-31T03:28:46;4.75;;;3.00;;
74177;SDS011;62540;48.456;-4.456;2023-07-31T03:31:11;4.00;;;3.00;;
74177;SDS011;62540;48.456;-4.456;2023-07-31T03:33:37;3.00;;;2.75;;
74177;SDS011;62540;48.456;-4.456;2023-07-31T03:36:02;3.00;;;2.25;;
74177;SDS011;62540;48.456;-4.456;2023-07-31T03:38:28;3.00;;;2.25;;
74177;SDS011;62540;48.456;-4.456;2023-07-31T03:40:53;4.25;;;3.75;;
74177;SDS011;62540;48.456;-4.456;2023-07-31T03:43:18;5.00;;;4.00;;
74177;SDS011;62540;48.456;-4.456;2023-07-31T03:45:44;6.50;;;3.50;;
74177;SDS011;62540;48.456;-4.456;2023-07-31T03:48:09;5.50;;;5.00;;
74177;SDS011;62540;48.456;-4.456;2023-07-31T03:50:35;5.50;;;5.25;;
74177;SDS011;62540;48.456;-4.456;2023-07-31T03:53:00;8.25;;;4.00;;
74177;SDS011;62540;48.456;-4.456;2023-07-31T03:55:26;6.00;;;5.00;;
74177;SDS011;62540;48.456;-4.456;2023-07-31T03:57:51;5.00;;;3.75;;
74177;SDS011;62540;48.456;-4.456;2023-07-31T04:00:16;5.25;;;5.00;;
74177;SDS011;62540;48.456;-4.456;2023-07-31T04:02:42;8.00;;;6.50;;
74177;SDS011;62540;48.456;-4.456;2023-07-31T04:05:07;7.25;;;6.75;;
74177;SDS011;62540;48.456;-4.456;2023-07-31T04:07:33;6.00;;;5.00;;
74177;SDS011;62540;48.456;-4.456;2023-07-31T04:09:59;7.00;;;5.50;;
74177;SDS011;62540;48.456;-4.456;2023-07-31T04:12:25;5.50;;;4.50;;
74177;SDS011;62540;48.456;-4.456;2023-07-31T04:14:50;5.25;;;4.25;;
74177;SDS011;62540;48.456;-4.456;2023-07-31T04:17:17;6.75;;;4.25;;
74177;SDS011;62540;48.456;-4.456;2023-07-31T04:19:43;8.00;;;7.00;;
74177;SDS011;62540;48.456;-4.456;2023-07-31T04:22:08;9.25;;;7.50;;
74177;SDS011;62540;48.456;-4.456;2023-07-31T04:24:33;8.50;;;6.00;;
74177;SDS011;62540;48.456;-4.456;2023-07-31T04:26:59;6.25;;;6.00;;
74177;SDS011;62540;48.456;-4.456;2023-07-31T04:29:24;6.00;;;6.00;;
74177;SDS011;62540;48.456;-4.456;2023-07-31T04:31:50;5.50;;;3.75;;
74177;SDS011;62540;48.456;-4.456;2023-07-31T04:34:15;5.25;;;5.25;;
74177;SDS011;62540;48.456;-4.456;2023-07-31T04:36:40;7.25;;;5.50;;
74177;SDS011;62540;48.456;-4.456;2023-07-31T04:39:06;6.50;;;5.25;;
74177;SDS011;62540;48.456;-4.456;2023-07-31T04:41:31;6.25;;;4.75;;
74177;SDS011;62540;48.456;-4.456;2023-07-31T04:43:56;6.00;;;4.25;;
74177;SDS011;62540;48.456;-4.456;2023-07-31T04:46:22;6.75;;;4.75;;
74177;SDS011;62540;48.456;-4.456;2023-07-31T04:48:47;6.50;;;6.00;;
74177;SDS011;62540;48.456;-4.456;2023-07-31T04:51:13;6.75;;;5.00;;
74177;SDS011;62540;48.456;-4.456;2023-07-31T04:53:38;5.75;;;5.25;;
74177;SDS011;62540;48.456;-4.456;2023-07-31T04:56:04;7.75;;;3.75;;
74177;SDS011;62540;48.456;-4.456;2023-07-31T04:58:29;7.50;;;5.00;;
74177;SDS011;62540;48.456;-4.456;2023-07-31T05:00:54;7.50;;;6.50;;
74177;SDS011;62540;48.456;-4.456;2023-07-31T05:03:20;10.25;;;6.75;;
74177;SDS011;62540;48.456;-4.456;2023-07-31T05:05:45;7.25;;;5.00;;
74177;SDS011;62540;48.456;-4.456;2023-07-31T05:08:11;7.75;;;6.50;;
74177;SDS011;62540;48.456;-4.456;2023-07-31T05:10:36;6.25;;;5.00;;
74177;SDS011;62540;48.456;-4.456;2023-07-31T05:13:01;5.50;;;5.00;;
74177;SDS011;62540;48.456;-4.456;2023-07-31T05:15:27;8.75;;;5.00;;
74177;SDS011;62540;48.456;-4.456;2023-07-31T05:17:53;5.75;;;4.75;;
74177;SDS011;62540;48.456;-4.456;2023-07-31T05:20:18;6.25;;;5.00;;
74177;SDS011;62540;48.456;-4.456;2023-07-31T05:22:44;6.75;;;4.25;;
74177;SDS011;62540;48.456;-4.456;2023-07-31T05:25:09;8.75;;;5.00;;
74177;SDS011;62540;48.456;-4.456;2023-07-31T05:27:34;3.75;;;3.50;;
74177;SDS011;62540;48.456;-4.456;2023-07-31T05:30:00;6.50;;;6.00;;
74177;SDS011;62540;48.456;-4.456;2023-07-31T05:32:25;6.25;;;5.25;;
74177;SDS011;62540;48.456;-4.456;2023-07-31T05:34:51;5.50;;;4.00;;
74177;SDS011;62540;48.456;-4.456;2023-07-31T05:37:17;7.25;;;5.25;;
74177;SDS011;62540;48.456;-4.456;2023-07-31T05:39:43;5.25;;;4.25;;
74177;SDS011;62540;48.456;-4.456;2023-07-31T05:42:08;6.50;;;6.00;;
74177;SDS011;62540;48.456;-4.456;2023-07-31T05:44:33;6.25;;;5.00;;
74177;SDS011;62540;48.456;-4.456;2023-07-31T05:46:59;10.00;;;6.75;;
74177;SDS011;62540;48.456;-4.456;2023-07-31T05:49:24;6.50;;;6.50;;
74177;SDS011;62540;48.456;-4.456;2023-07-31T05:51:50;8.75;;;6.75;;
74177;SDS011;62540;48.456;-4.456;2023-07-31T05:54:15;10.75;;;9.25;;
74177;SDS011;62540;48.456;-4.456;2023-07-31T05:56:41;7.50;;;6.25;;
74177;SDS011;62540;48.456;-4.456;2023-07-31T05:59:06;7.25;;;6.00;;
74177;SDS011;62540;48.456;-4.456;2023-07-31T06:01:32;8.50;;;6.25;;
74177;SDS011;62540;48.456;-4.456;2023-07-31T06:03:57;7.00;;;6.00;;
74177;SDS011;62540;48.456;-4.456;2023-07-31T06:06:22;12.75;;;8.75;;
74177;SDS011;62540;48.456;-4.456;2023-07-31T06:08:48;6.75;;;5.50;;
74177;SDS011;62540;48.456;-4.456;2023-07-31T06:11:13;7.00;;;6.00;;
74177;SDS011;62540;48.456;-4.456;2023-07-31T06:13:38;6.25;;;5.50;;
74177;SDS011;62540;48.456;-4.456;2023-07-31T06:16:04;7.50;;;5.00;;
74177;SDS011;62540;48.456;-4.456;2023-07-31T06:18:30;7.00;;;5.25;;
74177;SDS011;62540;48.456;-4.456;2023-07-31T06:20:56;5.75;;;3.75;;
74177;SDS011;62540;48.456;-4.456;2023-07-31T06:23:21;6.50;;;4.00;;
74177;SDS011;62540;48.456;-4.456;2023-07-31T06:25:47;5.00;;;4.00;;
74177;SDS011;62540;48.456;-4.456;2023-07-31T06:28:12;6.50;;;5.25;;
74177;SDS011;62540;48.456;-4.456;2023-07-31T06:30:38;5.25;;;4.00;;
74177;SDS011;62540;48.456;-4.456;2023-07-31T06:33:03;3.25;;;3.25;;
74177;SDS011;62540;48.456;-4.456;2023-07-31T06:35:28;4.25;;;3.75;;
74177;SDS011;62540;48.456;-4.456;2023-07-31T06:37:54;3.00;;;3.00;;
74177;SDS011;62540;48.456;-4.456;2023-07-31T06:40:19;7.00;;;5.00;;
74177;SDS011;62540;48.456;-4.456;2023-07-31T06:42:44;4.00;;;3.00;;
74177;SDS011;62540;48.456;-4.456;2023-07-31T06:45:10;4.00;;;4.00;;
74177;SDS011;62540;48.456;-4.456;2023-07-31T06:47:35;4.00;;;3.00;;
74177;SDS011;62540;48.456;-4.456;2023-07-31T06:50:01;3.00;;;2.50;;
74177;SDS011;62540;48.456;-4.456;2023-07-31T06:52:26;1.25;;;1.25;;
74177;SDS011;62540;48.456;-4.456;2023-07-31T06:55:15;4.50;;;3.00;;
74177;SDS011;62540;48.456;-4.456;2023-07-31T06:57:48;3.75;;;2.75;;
74177;SDS011;62540;48.456;-4.456;2023-07-31T07:00:15;2.25;;;2.00;;
74177;SDS011;62540;48.456;-4.456;2023-07-31T07:02:41;3.00;;;2.00;;
74177;SDS011;62540;48.456;-4.456;2023-07-31T07:05:07;1.00;;;1.00;;
74177;SDS011;62540;48.456;-4.456;2023-07-31T07:07:33;2.75;;;2.00;;
74177;SDS011;62540;48.456;-4.456;2023-07-31T07:09:59;1.00;;;1.00;;
74177;SDS011;62540;48.456;-4.456;2023-07-31T07:12:25;2.50;;;1.75;;
74177;SDS011;62540;48.456;-4.456;2023-07-31T07:14:52;3.25;;;2.25;;
74177;SDS011;62540;48.456;-4.456;2023-07-31T07:17:18;0.25;;;0.25;;
74177;SDS011;62540;48.456;-4.456;2023-07-31T07:19:44;1.75;;;1.00;;
74177;SDS011;62540;48.456;-4.456;2023-07-31T07:22:10;1.00;;;1.00;;
74177;SDS011;62540;48.456;-4.456;2023-07-31T07:24:36;0.50;;;0.25;;
74177;SDS011;62540;48.456;-4.456;2023-07-31T07:27:01;1.00;;;1.00;;
74177;SDS011;62540;48.456;-4.456;2023-07-31T07:29:27;1.50;;;1.00;;
74177;SDS011;62540;48.456;-4.456;2023-07-31T07:31:52;1.00;;;1.00;;
74177;SDS011;62540;48.456;-4.456;2023-07-31T07:34:17;1.00;;;1.00;;
74177;SDS011;62540;48.456;-4.456;2023-07-31T07:36:43;1.50;;;1.50;;
74177;SDS011;62540;48.456;-4.456;2023-07-31T07:39:09;1.00;;;1.00;;
74177;SDS011;62540;48.456;-4.456;2023-07-31T07:41:35;2.50;;;1.00;;
74177;SDS011;62540;48.456;-4.456;2023-07-31T07:44:00;2.00;;;1.25;;
74177;SDS011;62540;48.456;-4.456;2023-07-31T07:46:26;1.00;;;1.00;;
74177;SDS011;62540;48.456;-4.456;2023-07-31T07:48:51;0.75;;;0.75;;
74177;SDS011;62540;48.456;-4.456;2023-07-31T07:51:17;1.00;;;1.00;;
74177;SDS011;62540;48.456;-4.456;2023-07-31T07:53:42;1.75;;;0.00;;
74177;SDS011;62540;48.456;-4.456;2023-07-31T07:56:07;2.00;;;1.00;;
74177;SDS011;62540;48.456;-4.456;2023-07-31T07:58:33;2.00;;;0.00;;
74177;SDS011;62540;48.456;-4.456;2023-07-31T08:00:58;1.00;;;0.75;;
74177;SDS011;62540;48.456;-4.456;2023-07-31T08:03:23;1.00;;;1.00;;
74177;SDS011;62540;48.456;-4.456;2023-07-31T08:05:49;1.00;;;0.75;;
74177;SDS011;62540;48.456;-4.456;2023-07-31T08:08:15;1.00;;;0.50;;
74177;SDS011;62540;48.456;-4.456;2023-07-31T08:10:43;1.00;;;1.00;;
74177;SDS011;62540;48.456;-4.456;2023-07-31T08:13:11;2.00;;;1.00;;
74177;SDS011;62540;48.456;-4.456;2023-07-31T08:15:37;2.00;;;1.50;;
74177;SDS011;62540;48.456;-4.456;2023-07-31T08:18:02;2.50;;;1.75;;
74177;SDS011;62540;48.456;-4.456;2023-07-31T08:20:27;2.00;;;1.50;;
74177;SDS011;62540;48.456;-4.456;2023-07-31T08:22:53;2.00;;;2.00;;
74177;SDS011;62540;48.456;-4.456;2023-07-31T08:25:18;1.75;;;1.75;;
74177;SDS011;62540;48.456;-4.456;2023-07-31T08:27:44;3.25;;;2.25;;
74177;SDS011;62540;48.456;-4.456;2023-07-31T08:30:10;5.25;;;1.75;;
74177;SDS011;62540;48.456;-4.456;2023-07-31T08:32:36;3.00;;;2.25;;
74177;SDS011;62540;48.456;-4.456;2023-07-31T08:35:01;2.00;;;1.00;;
74177;SDS011;62540;48.456;-4.456;2023-07-31T08:37:27;3.50;;;1.25;;
74177;SDS011;62540;48.456;-4.456;2023-07-31T08:39:53;3.00;;;2.00;;
74177;SDS011;62540;48.456;-4.456;2023-07-31T08:42:19;0.75;;;0.75;;
74177;SDS011;62540;48.456;-4.456;2023-07-31T08:44:46;1.75;;;1.75;;
74177;SDS011;62540;48.456;-4.456;2023-07-31T08:47:12;1.00;;;1.00;;
74177;SDS011;62540;48.456;-4.456;2023-07-31T08:49:38;1.75;;;1.00;;
74177;SDS011;62540;48.456;-4.456;2023-07-31T08:52:05;2.00;;;1.00;;
74177;SDS011;62540;48.456;-4.456;2023-07-31T08:54:31;5.00;;;1.25;;
74177;SDS011;62540;48.456;-4.456;2023-07-31T08:56:58;2.00;;;1.25;;
74177;SDS011;62540;48.456;-4.456;2023-07-31T08:59:25;1.00;;;1.00;;
74177;SDS011;62540;48.456;-4.456;2023-07-31T09:01:54;1.00;;;1.00;;
74177;SDS011;62540;48.456;-4.456;2023-07-31T09:04:22;2.00;;;1.00;;
74177;SDS011;62540;48.456;-4.456;2023-07-31T09:06:49;2.00;;;0.00;;
74177;SDS011;62540;48.456;-4.456;2023-07-31T09:09:19;0.00;;;0.00;;
74177;SDS011;62540;48.456;-4.456;2023-07-31T09:11:45;0.25;;;0.25;;
74177;SDS011;62540;48.456;-4.456;2023-07-31T09:14:11;1.00;;;0.25;;
74177;SDS011;62540;48.456;-4.456;2023-07-31T09:16:52;0.50;;;0.50;;
74177;SDS011;62540;48.456;-4.456;2023-07-31T09:19:25;1.00;;;1.00;;
74177;SDS011;62540;48.456;-4.456;2023-07-31T09:21:52;0.00;;;0.00;;
74177;SDS011;62540;48.456;-4.456;2023-07-31T09:24:27;1.00;;;1.00;;
74177;SDS011;62540;48.456;-4.456;2023-07-31T09:26:57;1.50;;;1.25;;
74177;SDS011;62540;48.456;-4.456;2023-07-31T09:29:24;1.25;;;1.25;;
74177;SDS011;62540;48.456;-4.456;2023-07-31T09:31:51;3.00;;;1.50;;
74177;SDS011;62540;48.456;-4.456;2023-07-31T09:34:17;1.00;;;1.00;;
74177;SDS011;62540;48.456;-4.456;2023-07-31T09:36:44;1.00;;;1.00;;
74177;SDS011;62540;48.456;-4.456;2023-07-31T09:39:14;0.50;;;0.50;;
74177;SDS011;62540;48.456;-4.456;2023-07-31T09:41:44;1.00;;;1.00;;
74177;SDS011;62540;48.456;-4.456;2023-07-31T09:44:18;0.75;;;0.75;;
74177;SDS011;62540;48.456;-4.456;2023-07-31T09:46:43;1.25;;;1.25;;
74177;SDS011;62540;48.456;-4.456;2023-07-31T09:49:13;1.25;;;1.00;;
74177;SDS011;62540;48.456;-4.456;2023-07-31T09:51:40;1.00;;;1.00;;
74177;SDS011;62540;48.456;-4.456;2023-07-31T09:54:13;2.00;;;1.00;;
74177;SDS011;62540;48.456;-4.456;2023-07-31T09:56:47;1.00;;;1.00;;
74177;SDS011;62540;48.456;-4.456;2023-07-31T09:59:17;0.75;;;0.75;;
74177;SDS011;62540;48.456;-4.456;2023-07-31T10:01:44;1.00;;;1.00;;
74177;SDS011;62540;48.456;-4.456;2023-07-31T10:04:11;1.00;;;1.00;;
74177;SDS011;62540;48.456;-4.456;2023-07-31T10:06:37;2.00;;;1.00;;
74177;SDS011;62540;48.456;-4.456;2023-07-31T10:09:08;1.25;;;1.00;;
74177;SDS011;62540;48.456;-4.456;2023-07-31T10:11:41;1.00;;;1.00;;
74177;SDS011;62540;48.456;-4.456;2023-07-31T10:14:09;1.75;;;1.75;;
74177;SDS011;62540;48.456;-4.456;2023-07-31T10:16:37;2.50;;;2.00;;
74177;SDS011;62540;48.456;-4.456;2023-07-31T10:19:03;1.50;;;1.25;;
74177;SDS011;62540;48.456;-4.456;2023-07-31T10:21:29;1.25;;;1.25;;
74177;SDS011;62540;48.456;-4.456;2023-07-31T10:23:59;1.25;;;1.00;;
74177;SDS011;62540;48.456;-4.456;2023-07-31T10:26:28;1.00;;;1.00;;
74177;SDS011;62540;48.456;-4.456;2023-07-31T10:28:55;1.00;;;1.00;;
74177;SDS011;62540;48.456;-4.456;2023-07-31T10:31:23;1.00;;;0.00;;
74177;SDS011;62540;48.456;-4.456;2023-07-31T10:33:49;1.25;;;1.00;;
74177;SDS011;62540;48.456;-4.456;2023-07-31T10:36:19;2.25;;;1.25;;
74177;SDS011;62540;48.456;-4.456;2023-07-31T10:38:45;1.50;;;1.00;;
74177;SDS011;62540;48.456;-4.456;2023-07-31T10:41:13;1.00;;;1.00;;
74177;SDS011;62540;48.456;-4.456;2023-07-31T10:43:39;1.25;;;1.00;;
74177;SDS011;62540;48.456;-4.456;2023-07-31T10:46:08;2.50;;;2.00;;
74177;SDS011;62540;48.456;-4.456;2023-07-31T10:48:34;2.00;;;1.00;;
74177;SDS011;62540;48.456;-4.456;2023-07-31T10:51:02;2.75;;;2.00;;
74177;SDS011;62540;48.456;-4.456;2023-07-31T10:53:38;2.75;;;2.00;;
74177;SDS011;62540;48.456;-4.456;2023-07-31T10:56:08;4.00;;;2.75;;
74177;SDS011;62540;48.456;-4.456;2023-07-31T10:58:37;2.75;;;2.75;;
74177;SDS011;62540;48.456;-4.456;2023-07-31T11:01:04;2.75;;;2.00;;
74177;SDS011;62540;48.456;-4.456;2023-07-31T11:06:17;3.00;;;2.00;;
74177;SDS011;62540;48.456;-4.456;2023-07-31T11:08:44;3.75;;;2.75;;
74177;SDS011;62540;48.456;-4.456;2023-07-31T11:11:11;2.00;;;2.00;;
74177;SDS011;62540;48.456;-4.456;2023-07-31T11:13:42;2.00;;;1.75;;
74177;SDS011;62540;48.456;-4.456;2023-07-31T11:16:18;1.75;;;1.75;;
74177;SDS011;62540;48.456;-4.456;2023-07-31T11:18:45;1.50;;;1.50;;
74177;SDS011;62540;48.456;-4.456;2023-07-31T11:21:16;1.50;;;1.25;;
74177;SDS011;62540;48.456;-4.456;2023-07-31T11:23:51;1.00;;;1.00;;
74177;SDS011;62540;48.456;-4.456;2023-07-31T11:26:18;1.00;;;0.50;;
74177;SDS011;62540;48.456;-4.456;2023-07-31T11:28:47;0.25;;;0.25;;
74177;SDS011;62540;48.456;-4.456;2023-07-31T11:31:13;0.00;;;0.00;;
74177;SDS011;62540;48.456;-4.456;2023-07-31T11:33:39;1.00;;;0.00;;
74177;SDS011;62540;48.456;-4.456;2023-07-31T11:36:04;0.50;;;0.00;;
74177;SDS011;62540;48.456;-4.456;2023-07-31T11:38:30;0.00;;;0.00;;
74177;SDS011;62540;48.456;-4.456;2023-07-31T11:40:58;0.00;;;0.00;;
74177;SDS011;62540;48.456;-4.456;2023-07-31T11:43:25;0.00;;;0.00;;
74177;SDS011;62540;48.456;-4.456;2023-07-31T11:45:52;0.25;;;0.00;;
74177;SDS011;62540;48.456;-4.456;2023-07-31T11:48:20;0.75;;;0.00;;
74177;SDS011;62540;48.456;-4.456;2023-07-31T11:50:47;0.00;;;0.00;;
74177;SDS011;62540;48.456;-4.456;2023-07-31T11:53:14;0.00;;;0.00;;
74177;SDS011;62540;48.456;-4.456;2023-07-31T11:55:42;0.00;;;0.00;;
74177;SDS011;62540;48.456;-4.456;2023-07-31T11:58:08;0.00;;;0.00;;
74177;SDS011;62540;48.456;-4.456;2023-07-31T12:00:34;0.00;;;0.00;;
74177;SDS011;62540;48.456;-4.456;2023-07-31T12:02:59;0.00;;;0.00;;
74177;SDS011;62540;48.456;-4.456;2023-07-31T12:05:25;0.00;;;0.00;;
74177;SDS011;62540;48.456;-4.456;2023-07-31T12:07:52;0.00;;;0.00;;
74177;SDS011;62540;48.456;-4.456;2023-07-31T12:10:26;1.00;;;0.00;;
74177;SDS011;62540;48.456;-4.456;2023-07-31T12:13:05;0.00;;;0.00;;
74177;SDS011;62540;48.456;-4.456;2023-07-31T12:15:39;0.00;;;0.00;;
74177;SDS011;62540;48.456;-4.456;2023-07-31T12:18:15;0.00;;;0.00;;
74177;SDS011;62540;48.456;-4.456;2023-07-31T12:20:45;0.00;;;0.00;;
74177;SDS011;62540;48.456;-4.456;2023-07-31T12:25:54;0.00;;;0.00;;
74177;SDS011;62540;48.456;-4.456;2023-07-31T12:31:14;0.00;;;0.00;;
74177;SDS011;62540;48.456;-4.456;2023-07-31T12:33:44;0.00;;;0.00;;
74177;SDS011;62540;48.456;-4.456;2023-07-31T12:36:14;0.00;;;0.00;;
74177;SDS011;62540;48.456;-4.456;2023-07-31T12:38:45;0.00;;;0.00;;
74177;SDS011;62540;48.456;-4.456;2023-07-31T12:41:11;0.00;;;0.00;;
74177;SDS011;62540;48.456;-4.456;2023-07-31T12:43:38;0.00;;;0.00;;
74177;SDS011;62540;48.456;-4.456;2023-07-31T12:46:04;1.00;;;0.00;;
74177;SDS011;62540;48.456;-4.456;2023-07-31T12:48:31;0.00;;;0.00;;
74177;SDS011;62540;48.456;-4.456;2023-07-31T12:50:57;0.00;;;0.00;;
74177;SDS011;62540;48.456;-4.456;2023-07-31T12:53:22;1.00;;;0.75;;
74177;SDS011;62540;48.456;-4.456;2023-07-31T12:55:47;1.00;;;1.00;;
74177;SDS011;62540;48.456;-4.456;2023-07-31T12:58:13;2.00;;;1.00;;
74177;SDS011;62540;48.456;-4.456;2023-07-31T13:00:38;2.25;;;1.00;;
74177;SDS011;62540;48.456;-4.456;2023-07-31T13:03:04;2.00;;;1.00;;
74177;SDS011;62540;48.456;-4.456;2023-07-31T13:05:29;0.25;;;0.25;;
74177;SDS011;62540;48.456;-4.456;2023-07-31T13:07:55;0.50;;;0.50;;
74177;SDS011;62540;48.456;-4.456;2023-07-31T13:10:21;3.00;;;2.00;;
74177;SDS011;62540;48.456;-4.456;2023-07-31T13:12:47;2.25;;;1.50;;
74177;SDS011;62540;48.456;-4.456;2023-07-31T13:15:13;2.00;;;2.00;;
74177;SDS011;62540;48.456;-4.456;2023-07-31T13:17:39;2.75;;;2.75;;
74177;SDS011;62540;48.456;-4.456;2023-07-31T13:20:04;2.50;;;2.00;;
74177;SDS011;62540;48.456;-4.456;2023-07-31T13:22:30;3.50;;;2.75;;
74177;SDS011;62540;48.456;-4.456;2023-07-31T13:24:55;2.00;;;2.00;;
74177;SDS011;62540;48.456;-4.456;2023-07-31T13:27:21;1.50;;;1.25;;
74177;SDS011;62540;48.456;-4.456;2023-07-31T13:29:47;2.50;;;1.00;;
74177;SDS011;62540;48.456;-4.456;2023-07-31T13:32:14;4.50;;;3.00;;
74177;SDS011;62540;48.456;-4.456;2023-07-31T13:34:39;3.00;;;2.00;;
74177;SDS011;62540;48.456;-4.456;2023-07-31T13:37:04;3.50;;;2.75;;
74177;SDS011;62540;48.456;-4.456;2023-07-31T13:39:31;3.00;;;2.25;;
74177;SDS011;62540;48.456;-4.456;2023-07-31T13:41:57;5.25;;;4.75;;
74177;SDS011;62540;48.456;-4.456;2023-07-31T13:44:23;6.50;;;5.50;;
74177;SDS011;62540;48.456;-4.456;2023-07-31T13:46:48;4.50;;;4.25;;
74177;SDS011;62540;48.456;-4.456;2023-07-31T13:49:13;4.00;;;3.75;;
74177;SDS011;62540;48.456;-4.456;2023-07-31T13:51:39;3.75;;;2.50;;
74177;SDS011;62540;48.456;-4.456;2023-07-31T13:54:04;3.00;;;3.00;;
74177;SDS011;62540;48.456;-4.456;2023-07-31T13:56:31;4.00;;;4.00;;
74177;SDS011;62540;48.456;-4.456;2023-07-31T13:58:56;3.00;;;2.75;;
74177;SDS011;62540;48.456;-4.456;2023-07-31T14:01:22;3.00;;;2.75;;
74177;SDS011;62540;48.456;-4.456;2023-07-31T14:03:47;2.00;;;2.00;;
74177;SDS011;62540;48.456;-4.456;2023-07-31T14:06:13;2.00;;;1.25;;
74177;SDS011;62540;48.456;-4.456;2023-07-31T14:08:38;0.00;;;0.00;;
74177;SDS011;62540;48.456;-4.456;2023-07-31T14:11:04;3.00;;;2.00;;
74177;SDS011;62540;48.456;-4.456;2023-07-31T14:13:29;2.25;;;2.00;;
74177;SDS011;62540;48.456;-4.456;2023-07-31T14:15:54;2.00;;;2.00;;
74177;SDS011;62540;48.456;-4.456;2023-07-31T14:18:20;5.00;;;2.50;;
74177;SDS011;62540;48.456;-4.456;2023-07-31T14:20:45;1.50;;;1.00;;
74177;SDS011;62540;48.456;-4.456;2023-07-31T14:23:10;2.00;;;2.00;;
74177;SDS011;62540;48.456;-4.456;2023-07-31T14:25:36;0.75;;;0.50;;
74177;SDS011;62540;48.456;-4.456;2023-07-31T14:28:01;2.25;;;1.00;;
74177;SDS011;62540;48.456;-4.456;2023-07-31T14:30:27;1.00;;;1.00;;
74177;SDS011;62540;48.456;-4.456;2023-07-31T14:32:52;2.00;;;1.00;;
74177;SDS011;62540;48.456;-4.456;2023-07-31T14:35:17;3.25;;;2.25;;
74177;SDS011;62540;48.456;-4.456;2023-07-31T14:37:43;1.50;;;1.50;;
74177;SDS011;62540;48.456;-4.456;2023-07-31T14:40:10;2.00;;;1.25;;
74177;SDS011;62540;48.456;-4.456;2023-07-31T14:42:37;1.00;;;1.00;;